Time;durP1;ratioP1;P1;durP2;ratioP2;P2;SDS_P1;SDS_P2;PMS_P1;PMS_P2;Temp;Humidity;BMP_temperature;BMP_pressure;BME280_temperature;BME280_humidity;BME280_pressure;Samples;Min_cycle;Max_cycle;Signal;HPM_P1;HPM_P2
2021/01/17 00:00:50;;;;;;;49.72;25.70;;;-1.00;99.90;;;;;;4993291;28;20022;-82
2021/01/17 00:03:16;;;;;;;43.55;23.77;;;-1.00;99.90;;;;;;4975909;28;20046;-83
2021/01/17 00:05:43;;;;;;;42.83;22.40;;;-0.90;99.90;;;;;;4993783;28;20029;-83
2021/01/17 00:08:13;;;;;;;39.50;22.80;;;-1.00;99.90;;;;;;4993472;28;20026;-83
2021/01/17 00:10:40;;;;;;;38.85;21.48;;;-1.00;99.90;;;;;;4976216;28;20463;-83
2021/01/17 00:13:07;;;;;;;47.17;21.80;;;-1.00;99.90;;;;;;4993858;28;20030;-83
2021/01/17 00:15:33;;;;;;;40.88;21.95;;;-1.00;99.90;;;;;;4986371;28;20034;-82
2021/01/17 00:17:59;;;;;;;36.58;21.75;;;-1.00;99.90;;;;;;4973630;28;20027;-83
2021/01/17 00:20:26;;;;;;;36.17;20.10;;;-1.00;99.90;;;;;;4973907;28;20035;-83
2021/01/17 00:22:56;;;;;;;45.13;24.33;;;-1.00;99.90;;;;;;4973982;28;20027;-83
2021/01/17 00:25:22;;;;;;;36.28;20.17;;;-1.00;99.90;;;;;;4974448;28;20027;-83
2021/01/17 00:27:53;;;;;;;42.42;26.05;;;-1.00;99.90;;;;;;4974375;28;20042;-83
2021/01/17 00:30:24;;;;;;;103.22;45.10;;;-1.00;99.90;;;;;;4964274;28;20034;-83
2021/01/17 00:32:51;;;;;;;42.25;24.35;;;-1.00;99.90;;;;;;4980636;28;20027;-83
2021/01/17 00:35:18;;;;;;;40.33;23.45;;;-1.10;99.90;;;;;;4960576;28;20578;-83
2021/01/17 00:37:44;;;;;;;36.53;22.42;;;-1.10;99.90;;;;;;4978439;28;20093;-83
2021/01/17 00:40:12;;;;;;;36.40;21.98;;;-1.00;99.90;;;;;;4960968;28;20034;-83
2021/01/17 00:42:44;;;;;;;38.08;21.65;;;-1.10;99.90;;;;;;4960637;28;20023;-82
2021/01/17 00:45:11;;;;;;;37.35;22.05;;;-1.00;99.90;;;;;;4973038;28;20030;-82
2021/01/17 00:47:37;;;;;;;35.60;21.08;;;-1.10;99.90;;;;;;4978198;28;20134;-82
2021/01/17 00:50:04;;;;;;;36.15;22.42;;;-1.10;99.90;;;;;;4985627;28;20207;-82
2021/01/17 00:52:30;;;;;;;37.55;22.45;;;-1.10;99.90;;;;;;4970919;28;20050;-82
2021/01/17 00:54:56;;;;;;;35.25;21.05;;;-1.10;99.90;;;;;;4991603;28;20469;-83
2021/01/17 00:57:22;;;;;;;38.10;20.35;;;-1.10;99.90;;;;;;4997444;28;20034;-83
2021/01/17 00:59:48;;;;;;;44.20;23.02;;;-1.10;99.90;;;;;;4997549;28;20469;-83
2021/01/17 01:02:13;;;;;;;40.55;23.90;;;-1.10;99.90;;;;;;4997223;28;20046;-83
2021/01/17 01:04:39;;;;;;;40.33;22.45;;;-1.10;99.90;;;;;;4997503;28;20023;-83
2021/01/17 01:07:05;;;;;;;40.45;24.10;;;-1.10;99.90;;;;;;4979911;28;20029;-83
2021/01/17 01:09:31;;;;;;;40.33;24.20;;;-1.10;99.90;;;;;;4979941;28;20029;-82
2021/01/17 01:11:56;;;;;;;41.63;22.90;;;-1.10;99.90;;;;;;4997322;28;20022;-83
2021/01/17 01:14:22;;;;;;;42.92;24.08;;;-1.10;99.90;;;;;;4997312;28;20028;-83
2021/01/17 01:16:53;;;;;;;40.70;24.00;;;-1.10;99.90;;;;;;4997150;28;20022;-82
2021/01/17 01:19:19;;;;;;;42.45;22.90;;;-1.10;99.90;;;;;;4997253;28;20030;-83
2021/01/17 01:21:44;;;;;;;34.78;21.40;;;-1.10;99.90;;;;;;4995848;28;20032;-83
2021/01/17 01:24:11;;;;;;;34.47;19.55;;;-1.10;99.90;;;;;;4995662;28;20033;-82
2021/01/17 01:26:39;;;;;;;34.05;18.60;;;-1.10;99.90;;;;;;4996350;28;20033;-82
2021/01/17 01:29:06;;;;;;;27.73;16.55;;;-1.10;99.90;;;;;;4996448;28;20026;-82
2021/01/17 01:31:32;;;;;;;29.83;19.23;;;-1.20;99.90;;;;;;4996679;28;20030;-82
2021/01/17 01:33:58;;;;;;;35.75;18.83;;;-1.20;99.90;;;;;;4996631;28;20034;-82
2021/01/17 01:36:32;;;;;;;33.15;20.85;;;-1.20;99.90;;;;;;4996629;28;20035;-82
2021/01/17 01:38:58;;;;;;;29.40;16.90;;;-1.20;99.90;;;;;;4996791;28;20482;-82
2021/01/17 01:41:31;;;;;;;32.22;19.40;;;-1.20;99.90;;;;;;4995825;28;20046;-82
2021/01/17 01:43:58;;;;;;;34.30;19.42;;;-1.20;99.90;;;;;;4979256;28;20015;-82
2021/01/17 01:46:25;;;;;;;33.53;19.50;;;-1.20;99.90;;;;;;4996658;28;20026;-82
2021/01/17 01:48:53;;;;;;;32.55;18.98;;;-1.20;99.90;;;;;;4996637;28;20030;-82
2021/01/17 01:51:22;;;;;;;32.67;18.42;;;-1.20;99.90;;;;;;4979194;28;20041;-82
2021/01/17 01:53:56;;;;;;;30.00;18.23;;;-1.20;99.90;;;;;;4996554;28;20108;-82
2021/01/17 01:56:23;;;;;;;29.90;18.25;;;-1.20;99.90;;;;;;4996535;28;20030;-82
2021/01/17 01:58:51;;;;;;;27.05;17.10;;;-1.20;99.90;;;;;;4996548;28;20379;-82
2021/01/17 02:01:17;;;;;;;29.02;19.48;;;-1.30;99.90;;;;;;4978985;28;20033;-82
2021/01/17 02:03:47;;;;;;;29.67;18.02;;;-1.20;99.90;;;;;;4996260;28;20398;-82
2021/01/17 02:06:17;;;;;;;30.05;17.30;;;-1.20;99.90;;;;;;4996167;28;20034;-82
2021/01/17 02:09:21;;;;;;;28.60;17.65;;;-1.20;99.90;;;;;;4996170;28;20034;-82
2021/01/17 02:12:00;;;;;;;33.88;20.67;;;-1.30;99.90;;;;;;4996095;28;20026;-82
2021/01/17 02:14:41;;;;;;;31.08;18.50;;;-1.40;99.90;;;;;;4978705;28;20058;-82
2021/01/17 02:17:12;;;;;;;38.88;22.08;;;-1.30;99.90;;;;;;4978510;28;20038;-82
2021/01/17 02:19:46;;;;;;;33.00;21.48;;;-1.30;99.90;;;;;;4996081;28;20022;-82
2021/01/17 02:22:13;;;;;;;34.60;21.35;;;-1.30;99.90;;;;;;4978533;28;20027;-82
2021/01/17 02:24:50;;;;;;;34.22;20.77;;;-1.30;99.90;;;;;;4996057;28;20034;-82
2021/01/17 02:27:16;;;;;;;39.05;21.77;;;-1.30;99.90;;;;;;4978406;28;20466;-82
2021/01/17 02:29:46;;;;;;;41.20;22.40;;;-1.30;99.90;;;;;;4995934;28;20351;-82
2021/01/17 02:32:16;;;;;;;36.05;22.05;;;-1.30;99.90;;;;;;4995981;28;20026;-82
2021/01/17 02:34:42;;;;;;;39.78;20.50;;;-1.30;99.90;;;;;;4978154;28;20039;-82
2021/01/17 02:37:42;;;;;;;40.42;23.52;;;-1.30;99.90;;;;;;4995662;28;20022;-82
2021/01/17 02:40:17;;;;;;;32.50;18.33;;;-1.30;99.90;;;;;;4995620;28;20025;-82
2021/01/17 02:42:47;;;;;;;42.13;23.67;;;-1.30;99.90;;;;;;4995590;28;20022;-83
2021/01/17 02:45:14;;;;;;;38.53;21.38;;;-1.30;99.90;;;;;;4978156;28;20034;-83
2021/01/17 02:47:40;;;;;;;35.13;20.27;;;-1.30;99.90;;;;;;4995616;28;20049;-83
2021/01/17 02:50:08;;;;;;;37.08;21.55;;;-1.30;99.90;;;;;;4995594;28;20819;-82
2021/01/17 02:52:41;;;;;;;39.42;23.27;;;-1.40;99.90;;;;;;4995544;28;20031;-82
2021/01/17 02:55:08;;;;;;;35.13;21.85;;;-1.30;99.90;;;;;;4995219;28;20030;-83
2021/01/17 02:57:36;;;;;;;37.13;20.58;;;-1.30;99.90;;;;;;4977540;28;20085;-82
2021/01/17 03:00:12;;;;;;;45.70;23.33;;;-1.30;99.90;;;;;;4994935;28;20022;-83
2021/01/17 03:02:45;;;;;;;46.60;25.77;;;-1.30;99.90;;;;;;4994567;28;20042;-82
2021/01/17 03:05:16;;;;;;;42.33;22.85;;;-1.30;99.90;;;;;;4994931;28;20545;-82
2021/01/17 03:07:48;;;;;;;35.83;20.20;;;-1.30;99.90;;;;;;4977421;28;20497;-82
2021/01/17 03:10:13;;;;;;;39.70;23.25;;;-1.30;99.90;;;;;;4977415;28;20486;-83
2021/01/17 03:12:39;;;;;;;52.50;28.35;;;-1.30;99.90;;;;;;4976963;28;20121;-82
2021/01/17 03:15:07;;;;;;;41.40;24.80;;;-1.30;99.90;;;;;;4994518;28;20023;-83
2021/01/17 03:17:33;;;;;;;42.83;24.80;;;-1.30;99.90;;;;;;4994701;28;20101;-83
2021/01/17 03:19:59;;;;;;;49.88;25.45;;;-1.30;99.90;;;;;;4994710;28;20101;-83
2021/01/17 03:22:26;;;;;;;43.17;25.23;;;-1.30;99.90;;;;;;4977020;28;20685;-83
2021/01/17 03:24:52;;;;;;;37.08;22.55;;;-1.30;99.90;;;;;;4994624;28;20490;-83
2021/01/17 03:27:18;;;;;;;45.15;22.75;;;-1.30;99.90;;;;;;4993580;28;20054;-83
2021/01/17 03:29:43;;;;;;;38.50;22.38;;;-1.30;99.90;;;;;;4993256;28;20022;-83
2021/01/17 03:32:09;;;;;;;40.45;24.52;;;-1.30;99.90;;;;;;4993277;28;20023;-83
2021/01/17 03:34:35;;;;;;;36.45;22.40;;;-1.30;99.90;;;;;;4975677;28;20419;-82
2021/01/17 03:37:02;;;;;;;41.58;24.05;;;-1.30;99.90;;;;;;4993263;28;20105;-83
2021/01/17 03:39:28;;;;;;;38.60;21.63;;;-1.30;99.90;;;;;;4993269;28;20026;-83
2021/01/17 03:41:54;;;;;;;43.58;23.05;;;-1.30;99.90;;;;;;4993073;28;20023;-83
2021/01/17 03:44:20;;;;;;;40.75;23.50;;;-1.30;99.90;;;;;;4992793;28;20106;-83
2021/01/17 03:46:45;;;;;;;40.92;21.42;;;-1.30;99.90;;;;;;4992943;28;20033;-83
2021/01/17 03:49:11;;;;;;;41.97;23.50;;;-1.30;99.90;;;;;;4975685;28;20117;-83
2021/01/17 03:51:37;;;;;;;65.47;30.27;;;-1.40;99.90;;;;;;4976276;28;20030;-83
2021/01/17 03:54:03;;;;;;;65.20;31.63;;;-1.30;99.90;;;;;;4993479;28;20026;-83
2021/01/17 03:56:28;;;;;;;67.53;32.95;;;-1.30;99.90;;;;;;4992008;28;20026;-83
2021/01/17 03:58:54;;;;;;;46.05;25.35;;;-1.40;99.90;;;;;;4974720;28;20034;-83
2021/01/17 04:01:20;;;;;;;52.10;30.02;;;-1.30;99.90;;;;;;4991852;28;20134;-83
2021/01/17 04:03:46;;;;;;;50.75;28.27;;;-1.30;99.90;;;;;;4974099;28;20069;-83
2021/01/17 04:06:11;;;;;;;45.53;26.65;;;-1.30;99.90;;;;;;4991581;28;20038;-83
2021/01/17 04:08:37;;;;;;;46.90;25.48;;;-1.30;99.90;;;;;;4974092;28;20398;-83
2021/01/17 04:11:03;;;;;;;43.10;26.23;;;-1.30;99.90;;;;;;4991657;28;20026;-84
2021/01/17 04:13:29;;;;;;;49.58;28.30;;;-1.30;99.90;;;;;;4991960;28;20034;-83
2021/01/17 04:15:54;;;;;;;41.22;21.67;;;-1.30;99.90;;;;;;4974537;28;20034;-84
2021/01/17 04:18:20;;;;;;;39.65;22.23;;;-1.30;99.90;;;;;;4992973;28;20026;-83
2021/01/17 04:20:47;;;;;;;36.45;22.33;;;-1.30;99.90;;;;;;4976566;28;20035;-83
2021/01/17 04:23:13;;;;;;;27.35;17.67;;;-1.40;99.90;;;;;;4993361;28;20030;-83
2021/01/17 04:25:40;;;;;;;26.95;17.55;;;-1.30;99.90;;;;;;4993864;28;20030;-83
2021/01/17 04:28:10;;;;;;;26.95;17.35;;;-1.30;99.90;;;;;;4994049;28;20054;-83
2021/01/17 04:30:36;;;;;;;24.80;17.05;;;-1.30;99.90;;;;;;4994068;28;20033;-84
2021/01/17 04:33:03;;;;;;;25.50;17.63;;;-1.40;99.90;;;;;;4976442;28;20035;-83
2021/01/17 04:35:29;;;;;;;26.05;16.30;;;-1.30;99.90;;;;;;4993974;28;20037;-83
2021/01/17 04:37:59;;;;;;;27.23;18.35;;;-1.40;99.90;;;;;;4976546;28;20026;-84
2021/01/17 04:40:27;;;;;;;26.60;16.40;;;-1.40;99.90;;;;;;4976497;28;20113;-84
2021/01/17 04:43:08;;;;;;;27.58;16.50;;;-1.40;99.90;;;;;;4993792;28;20026;-83
2021/01/17 04:45:35;;;;;;;29.80;18.05;;;-1.40;99.90;;;;;;4993857;28;20027;-84
2021/01/17 04:48:03;;;;;;;28.33;17.30;;;-1.40;99.90;;;;;;4976425;28;20588;-84
2021/01/17 04:50:33;;;;;;;30.63;19.00;;;-1.40;99.90;;;;;;4993747;28;20540;-84
2021/01/17 04:53:03;;;;;;;34.50;20.50;;;-1.40;99.90;;;;;;4976223;28;20026;-84
2021/01/17 04:55:30;;;;;;;33.03;18.15;;;-1.40;99.90;;;;;;4993875;28;20383;-84
2021/01/17 04:57:56;;;;;;;34.05;19.52;;;-1.40;99.90;;;;;;4993949;28;20069;-84
2021/01/17 05:00:27;;;;;;;42.53;23.92;;;-1.40;99.90;;;;;;4976236;28;20502;-84
2021/01/17 05:03:19;;;;;;;36.28;21.45;;;-1.50;99.90;;;;;;4993499;28;20513;-84
2021/01/17 05:06:15;;;;;;;35.10;20.58;;;-1.50;99.90;;;;;;4976190;28;20058;-84
2021/01/17 05:08:45;;;;;;;32.72;18.85;;;-1.40;99.90;;;;;;4976168;28;20064;-84
2021/01/17 05:11:40;;;;;;;31.70;19.90;;;-1.40;99.90;;;;;;4993616;28;20502;-84
2021/01/17 05:14:33;;;;;;;40.42;21.95;;;-1.40;99.90;;;;;;4988108;28;20038;-84
2021/01/17 05:16:59;;;;;;;39.25;22.50;;;-1.40;99.90;;;;;;4977300;28;20505;-84
2021/01/17 05:19:24;;;;;;;43.05;25.75;;;-1.50;99.90;;;;;;4997188;28;20058;-84
2021/01/17 05:21:52;;;;;;;34.08;20.73;;;-1.40;99.90;;;;;;4997185;28;20046;-84
2021/01/17 05:24:21;;;;;;;28.92;18.17;;;-1.50;99.90;;;;;;4979800;28;20023;-84
2021/01/17 05:26:58;;;;;;;33.35;20.55;;;-1.50;99.90;;;;;;4979667;28;20031;-84
2021/01/17 05:29:27;;;;;;;29.67;18.90;;;-1.50;99.90;;;;;;4979539;28;20113;-84
2021/01/17 05:32:00;;;;;;;29.85;18.92;;;-1.50;99.90;;;;;;4979513;28;20481;-84
2021/01/17 05:34:27;;;;;;;30.63;19.67;;;-1.50;99.90;;;;;;4996980;28;20022;-84
2021/01/17 05:37:07;;;;;;;38.88;22.63;;;-1.50;99.90;;;;;;4995695;28;20557;-84
2021/01/17 05:39:53;;;;;;;47.80;26.08;;;-1.50;99.90;;;;;;4995243;28;20045;-84
2021/01/17 05:42:22;;;;;;;49.22;27.23;;;-1.50;99.90;;;;;;4995773;28;20076;-84
2021/01/17 05:44:49;;;;;;;63.78;31.10;;;-1.50;99.90;;;;;;4996393;28;20028;-84
2021/01/17 05:47:23;;;;;;;55.47;27.90;;;-1.50;99.90;;;;;;4996335;28;20031;-84
2021/01/17 05:49:50;;;;;;;38.78;24.13;;;-1.50;99.90;;;;;;4978857;28;20028;-84
2021/01/17 05:52:18;;;;;;;34.22;21.48;;;-1.50;99.90;;;;;;4996177;28;20026;-84
2021/01/17 05:54:49;;;;;;;42.95;21.80;;;-1.50;99.90;;;;;;4996323;28;20023;-84
2021/01/17 05:57:23;;;;;;;41.95;23.10;;;-1.50;99.90;;;;;;4978905;28;20058;-84
2021/01/17 05:59:50;;;;;;;44.25;25.85;;;-1.50;99.90;;;;;;4996654;28;20030;-84
2021/01/17 06:02:20;;;;;;;43.38;23.98;;;-1.50;99.90;;;;;;4978776;28;20071;-84
2021/01/17 06:04:57;;;;;;;37.17;21.83;;;-1.50;99.90;;;;;;4978838;28;20121;-84
2021/01/17 06:07:25;;;;;;;51.38;27.83;;;-1.50;99.90;;;;;;4978503;28;20389;-84
2021/01/17 06:10:07;;;;;;;49.90;27.95;;;-1.50;99.90;;;;;;4996312;28;20442;-84
2021/01/17 06:12:35;;;;;;;44.75;25.52;;;-1.50;99.90;;;;;;4996257;28;20034;-84
2021/01/17 06:15:06;;;;;;;46.10;26.52;;;-1.50;99.90;;;;;;4978789;28;20529;-84
2021/01/17 06:17:34;;;;;;;44.67;24.63;;;-1.50;99.90;;;;;;4996178;28;20386;-84
2021/01/17 06:20:02;;;;;;;42.75;25.02;;;-1.50;99.90;;;;;;4996115;28;20035;-84
2021/01/17 06:22:29;;;;;;;49.92;28.67;;;-1.60;99.90;;;;;;4978626;28;20113;-84
2021/01/17 06:25:05;;;;;;;51.65;27.42;;;-1.50;99.90;;;;;;4978505;28;20072;-84
2021/01/17 06:27:31;;;;;;;49.78;29.17;;;-1.50;99.90;;;;;;4978124;28;20381;-84
2021/01/17 06:29:57;;;;;;;50.30;28.70;;;-1.60;99.90;;;;;;4978377;28;20646;-84
2021/01/17 06:32:25;;;;;;;54.10;30.27;;;-1.60;99.90;;;;;;4995732;28;20405;-84
2021/01/17 06:34:56;;;;;;;45.38;27.92;;;-1.50;99.90;;;;;;4995674;28;20026;-84
2021/01/17 06:37:24;;;;;;;52.35;29.25;;;-1.50;99.90;;;;;;4995640;28;20052;-84
2021/01/17 06:39:53;;;;;;;42.80;25.27;;;-1.50;99.90;;;;;;4995690;28;20022;-84
2021/01/17 06:42:21;;;;;;;45.33;27.90;;;-1.50;99.90;;;;;;4995564;28;20037;-84
2021/01/17 06:44:49;;;;;;;40.00;25.35;;;-1.50;99.90;;;;;;4978026;28;20549;-85
2021/01/17 06:47:18;;;;;;;42.10;26.25;;;-1.50;99.90;;;;;;4995579;28;20153;-84
2021/01/17 06:49:44;;;;;;;45.25;27.77;;;-1.50;99.90;;;;;;4995566;28;20026;-84
2021/01/17 06:52:11;;;;;;;50.65;29.40;;;-1.50;99.90;;;;;;4977960;28;20065;-84
2021/01/17 06:54:39;;;;;;;56.92;32.15;;;-1.50;99.90;;;;;;4977836;28;20026;-84
2021/01/17 06:57:06;;;;;;;57.08;34.47;;;-1.50;99.90;;;;;;4995121;28;20018;-84
2021/01/17 06:59:46;;;;;;;74.15;43.03;;;-1.50;99.90;;;;;;4994881;28;20033;-84
2021/01/17 07:02:17;;;;;;;104.28;57.13;;;-1.50;99.90;;;;;;4995157;28;20109;-83
2021/01/17 07:04:52;;;;;;;82.03;45.90;;;-1.40;99.90;;;;;;4995259;28;20027;-84
2021/01/17 07:07:49;;;;;;;75.53;39.40;;;-1.40;99.90;;;;;;4977821;28;20482;-84
2021/01/17 07:10:20;;;;;;;69.68;37.90;;;-1.40;99.90;;;;;;4995164;28;20545;-84
2021/01/17 07:12:57;;;;;;;78.95;44.25;;;-1.40;99.90;;;;;;4977579;28;20026;-84
2021/01/17 07:15:26;;;;;;;64.97;36.47;;;-1.40;99.90;;;;;;4995080;28;20077;-84
2021/01/17 07:18:20;;;;;;;85.75;43.42;;;-1.40;99.90;;;;;;4994899;28;20018;-84
2021/01/17 07:20:49;;;;;;;88.85;51.05;;;-1.40;99.90;;;;;;4976889;28;20110;-84
2021/01/17 07:23:17;;;;;;;71.20;37.00;;;-1.30;99.90;;;;;;4994903;28;20026;-84
2021/01/17 07:25:45;;;;;;;246.80;112.75;;;-1.30;99.90;;;;;;4994809;28;20034;-84
2021/01/17 07:28:12;;;;;;;84.65;45.88;;;-1.30;99.90;;;;;;4977353;28;20507;-84
2021/01/17 07:30:56;;;;;;;50.00;30.90;;;-1.30;99.90;;;;;;4994730;28;20081;-84
2021/01/17 07:33:30;;;;;;;66.75;36.50;;;-1.30;99.90;;;;;;4977345;28;20397;-84
2021/01/17 07:36:07;;;;;;;104.28;48.85;;;-1.30;99.90;;;;;;4977148;28;20054;-84
2021/01/17 07:38:35;;;;;;;93.88;53.30;;;-1.30;99.90;;;;;;4994472;28;20029;-84
2021/01/17 07:41:04;;;;;;;82.78;39.55;;;-1.30;99.90;;;;;;4994202;28;20085;-84
2021/01/17 07:43:38;;;;;;;60.58;34.50;;;-1.30;99.90;;;;;;4977217;28;20080;-84
2021/01/17 07:46:15;;;;;;;71.60;38.60;;;-1.30;99.90;;;;;;4994270;28;20027;-84
2021/01/17 07:48:42;;;;;;;125.35;61.50;;;-1.20;99.90;;;;;;4976779;28;20036;-84
2021/01/17 07:51:11;;;;;;;97.28;49.58;;;-1.20;99.90;;;;;;4994475;28;20029;-84
2021/01/17 07:53:37;;;;;;;152.18;60.65;;;-1.20;99.90;;;;;;4994340;28;20030;-84
2021/01/17 07:56:09;;;;;;;120.90;56.17;;;-1.20;99.90;;;;;;4977031;28;20027;-84
2021/01/17 07:58:45;;;;;;;101.38;52.22;;;-1.20;99.90;;;;;;4994651;28;20026;-84
2021/01/17 08:01:34;;;;;;;64.40;35.20;;;-1.10;99.90;;;;;;4994268;28;20497;-84
2021/01/17 08:04:05;;;;;;;87.50;44.13;;;-1.20;99.90;;;;;;4994145;28;20050;-84
2021/01/17 08:06:37;;;;;;;156.32;64.57;;;-1.10;99.90;;;;;;4976963;28;20030;-84
2021/01/17 08:09:11;;;;;;;65.97;38.17;;;-1.10;99.90;;;;;;4977004;28;20448;-84
2021/01/17 08:11:40;;;;;;;79.15;44.00;;;-1.10;99.90;;;;;;4994221;28;20026;-84
2021/01/17 08:14:34;;;;;;;164.20;69.95;;;-1.10;99.90;;;;;;4994146;28;20025;-84
2021/01/17 08:17:13;;;;;;;88.05;46.17;;;-1.10;99.90;;;;;;4976668;28;20055;-84
2021/01/17 08:19:55;;;;;;;103.68;53.55;;;-1.10;99.90;;;;;;4976726;28;20026;-84
2021/01/17 08:22:24;;;;;;;99.47;52.13;;;-1.10;99.90;;;;;;4994055;28;20022;-84
2021/01/17 08:24:51;;;;;;;72.60;41.38;;;-1.10;99.90;;;;;;4976669;28;20101;-84
2021/01/17 08:27:31;;;;;;;76.75;42.00;;;-1.10;99.90;;;;;;4993956;28;20030;-84
2021/01/17 08:30:03;;;;;;;70.85;38.63;;;-1.00;99.90;;;;;;4976656;28;20042;-84
2021/01/17 08:32:45;;;;;;;75.30;39.70;;;-1.00;99.90;;;;;;4976526;28;20574;-86
2021/01/17 08:35:20;;;;;;;87.15;42.58;;;-0.90;99.90;;;;;;4993807;28;20027;-85
2021/01/17 08:38:11;;;;;;;63.90;35.42;;;-0.90;99.90;;;;;;4976498;28;20033;-86
2021/01/17 08:40:36;;;;;;;97.60;50.10;;;-1.00;99.90;;;;;;4976483;28;20027;-86
2021/01/17 08:43:05;;;;;;;100.38;50.13;;;-0.90;99.90;;;;;;4976477;28;20037;-87
2021/01/17 08:45:34;;;;;;;92.82;47.22;;;-0.90;99.90;;;;;;4976297;28;20046;-87
2021/01/17 08:48:02;;;;;;;89.93;43.53;;;-0.80;99.90;;;;;;4976378;28;20108;-87
2021/01/17 08:50:35;;;;;;;122.78;56.28;;;-0.80;99.90;;;;;;4977152;28;20031;-86
2021/01/17 08:53:24;;;;;;;68.85;40.30;;;-0.80;99.90;;;;;;4980245;28;20022;-87
2021/01/17 08:55:53;;;;;;;121.63;61.42;;;-0.80;99.90;;;;;;4980205;28;20426;-86
2021/01/17 08:58:25;;;;;;;80.90;44.83;;;-0.70;99.90;;;;;;4980289;28;20034;-85
2021/01/17 09:00:51;;;;;;;79.47;42.85;;;-0.70;99.90;;;;;;4997514;28;20018;-86
2021/01/17 09:03:31;;;;;;;67.20;40.55;;;-0.70;99.90;;;;;;4979798;28;20112;-85
2021/01/17 09:05:58;;;;;;;83.45;44.92;;;-0.70;99.90;;;;;;4979990;28;20037;-86
2021/01/17 09:08:25;;;;;;;69.15;40.15;;;-0.70;99.90;;;;;;4997507;28;20034;-87
2021/01/17 09:10:51;;;;;;;109.30;56.17;;;-0.60;99.90;;;;;;4980113;28;20113;-86
2021/01/17 09:13:28;;;;;;;170.85;71.50;;;-0.60;99.90;;;;;;4979746;28;20030;-86
2021/01/17 09:16:03;;;;;;;123.47;58.92;;;-0.60;99.90;;;;;;4997340;28;20385;-86
2021/01/17 09:18:33;;;;;;;237.77;99.38;;;-0.60;99.90;;;;;;4979711;28;20026;-85
2021/01/17 09:20:59;;;;;;;205.60;86.60;;;-0.50;99.90;;;;;;4979723;28;20026;-84
2021/01/17 09:23:26;;;;;;;181.27;77.88;;;-0.50;99.90;;;;;;4993999;28;20105;-85
2021/01/17 09:25:57;;;;;;;128.27;65.20;;;-0.50;99.90;;;;;;4963734;28;20508;-84
2021/01/17 09:28:23;;;;;;;133.00;69.70;;;-0.50;99.90;;;;;;4996193;28;20549;-87
2021/01/17 09:30:54;;;;;;;136.10;71.40;;;-0.40;99.90;;;;;;4997006;28;20030;-85
2021/01/17 09:33:20;;;;;;;90.97;50.33;;;-0.40;99.90;;;;;;4979558;28;20030;-85
2021/01/17 09:35:47;;;;;;;85.70;51.80;;;-0.40;99.90;;;;;;4979466;28;20030;-84
2021/01/17 09:38:17;;;;;;;83.53;48.58;;;-0.50;99.90;;;;;;4979558;28;20391;-86
2021/01/17 09:40:45;;;;;;;89.53;51.00;;;-0.50;99.90;;;;;;4979390;28;20022;-85
2021/01/17 09:43:12;;;;;;;76.30;44.45;;;-0.40;99.90;;;;;;4979451;28;20023;-80
2021/01/17 09:45:38;;;;;;;80.10;45.50;;;-0.40;99.90;;;;;;4996813;28;20019;-85
2021/01/17 09:48:04;;;;;;;86.07;46.58;;;-0.40;99.90;;;;;;4979076;28;20026;-84
2021/01/17 09:50:39;;;;;;;149.45;71.88;;;-0.30;99.90;;;;;;4979179;28;20073;-85
2021/01/17 09:53:06;;;;;;;67.35;40.47;;;-0.30;99.90;;;;;;4978665;28;20481;-85
2021/01/17 09:55:41;;;;;;;75.25;39.10;;;-0.30;99.90;;;;;;4978751;28;20109;-85
2021/01/17 09:58:09;;;;;;;77.00;41.58;;;-0.40;99.90;;;;;;4978296;28;20053;-85
2021/01/17 10:00:37;;;;;;;61.42;36.95;;;-0.30;99.90;;;;;;4978255;28;20035;-85
2021/01/17 10:03:16;;;;;;;59.97;35.40;;;-0.30;99.90;;;;;;4975769;28;20054;-85
2021/01/17 10:05:44;;;;;;;48.22;30.45;;;-0.30;99.90;;;;;;4978224;28;20077;-84
2021/01/17 10:08:11;;;;;;;61.58;34.40;;;-0.30;99.90;;;;;;4996367;28;20485;-87
2021/01/17 10:10:47;;;;;;;45.13;29.75;;;-0.30;99.90;;;;;;4978822;28;20030;-86
2021/01/17 10:13:13;;;;;;;56.17;32.70;;;-0.30;99.90;;;;;;4978876;28;20034;-86
2021/01/17 10:15:40;;;;;;;59.55;36.83;;;-0.30;99.90;;;;;;4978781;28;20026;-83
2021/01/17 10:18:07;;;;;;;48.97;30.70;;;-0.20;99.90;;;;;;4996202;28;20018;-85
2021/01/17 10:20:38;;;;;;;48.58;31.17;;;-0.30;99.90;;;;;;4978720;28;20560;-85
2021/01/17 10:23:05;;;;;;;58.50;35.90;;;-0.20;99.90;;;;;;4978770;28;20031;-85
2021/01/17 10:25:32;;;;;;;40.35;27.17;;;-0.20;99.90;;;;;;4978656;28;20049;-85
2021/01/17 10:28:02;;;;;;;44.50;29.85;;;-0.30;99.90;;;;;;4978497;28;20125;-86
2021/01/17 10:30:29;;;;;;;49.70;30.92;;;-0.20;99.90;;;;;;4995907;28;20077;-85
2021/01/17 10:33:10;;;;;;;49.40;32.17;;;-0.20;99.90;;;;;;4978424;28;20498;-86
2021/01/17 10:35:44;;;;;;;56.78;33.53;;;-0.20;99.90;;;;;;4978363;28;20031;-88
2021/01/17 10:38:11;;;;;;;91.97;47.50;;;-0.20;99.90;;;;;;4978519;28;20752;-86
2021/01/17 10:40:38;;;;;;;113.57;58.80;;;-0.20;99.90;;;;;;4978242;28;20474;-86
2021/01/17 10:43:07;;;;;;;88.22;51.70;;;-0.20;99.90;;;;;;4978308;28;20536;-86
2021/01/17 10:45:34;;;;;;;54.97;34.35;;;-0.10;99.90;;;;;;4995572;28;20496;-85
2021/01/17 10:48:19;;;;;;;66.30;42.70;;;-0.20;99.90;;;;;;4976875;28;20030;-87
2021/01/17 10:50:56;;;;;;;85.78;45.72;;;-0.10;99.90;;;;;;4976425;28;20033;-85
2021/01/17 10:53:49;;;;;;;123.95;61.70;;;-0.10;99.90;;;;;;4977725;28;20042;-85
2021/01/17 10:56:20;;;;;;;78.15;42.20;;;-0.10;99.90;;;;;;4977561;28;20037;-85
2021/01/17 10:58:47;;;;;;;73.97;37.80;;;-0.10;99.90;;;;;;4994521;28;20395;-85
2021/01/17 11:01:13;;;;;;;61.55;33.05;;;-0.10;99.90;;;;;;4977366;28;20118;-86
2021/01/17 11:03:41;;;;;;;148.48;66.10;;;-0.10;99.90;;;;;;4976015;28;20137;-86
2021/01/17 11:06:11;;;;;;;67.22;36.38;;;-0.10;99.90;;;;;;4995259;28;20027;-85
2021/01/17 11:08:47;;;;;;;85.18;44.63;;;-0.10;99.90;;;;;;4995105;28;20077;-86
2021/01/17 11:11:15;;;;;;;63.13;35.80;;;-0.10;99.90;;;;;;4995126;28;20033;-84
2021/01/17 11:13:42;;;;;;;84.95;46.33;;;-0.10;99.90;;;;;;4976740;28;20084;-86
2021/01/17 11:16:08;;;;;;;48.30;28.85;;;0.00;99.90;;;;;;4973234;28;20023;-83
2021/01/17 11:18:36;;;;;;;38.35;25.25;;;0.00;99.90;;;;;;4993114;28;20022;-81
2021/01/17 11:21:04;;;;;;;69.63;37.00;;;-0.10;99.90;;;;;;4998837;28;20530;-87
2021/01/17 11:23:31;;;;;;;96.72;43.75;;;-0.10;99.90;;;;;;4977390;28;20050;-86
2021/01/17 11:25:57;;;;;;;78.60;38.60;;;-0.10;99.90;;;;;;4977335;28;20482;-86
2021/01/17 11:28:26;;;;;;;126.25;50.88;;;-0.20;99.90;;;;;;4977328;28;20057;-86
2021/01/17 11:30:52;;;;;;;122.80;50.95;;;-0.20;99.90;;;;;;4977362;28;20517;-86
2021/01/17 11:33:18;;;;;;;88.72;44.22;;;-0.10;99.90;;;;;;4977087;28;20026;-85
2021/01/17 11:35:44;;;;;;;107.95;50.58;;;-0.10;99.90;;;;;;4977145;28;20030;-86
2021/01/17 11:38:10;;;;;;;79.38;44.65;;;-0.10;99.90;;;;;;4977325;28;20026;-86
2021/01/17 11:40:36;;;;;;;63.83;37.25;;;-0.10;99.90;;;;;;4976935;28;20036;-85
2021/01/17 11:43:11;;;;;;;78.28;42.63;;;-0.10;99.90;;;;;;4977125;28;20061;-86
2021/01/17 11:45:39;;;;;;;49.92;30.20;;;0.00;99.90;;;;;;4977097;28;20026;-86
2021/01/17 11:48:05;;;;;;;66.00;33.13;;;0.00;99.90;;;;;;4977156;28;20516;-85
2021/01/17 11:50:31;;;;;;;83.13;43.17;;;-0.10;99.90;;;;;;4976326;28;20026;-86
2021/01/17 11:53:02;;;;;;;49.05;29.08;;;-0.10;99.90;;;;;;4994366;28;20037;-85
2021/01/17 11:55:29;;;;;;;49.80;28.48;;;-0.10;99.90;;;;;;4994409;28;20084;-86
2021/01/17 11:58:09;;;;;;;58.40;32.10;;;-0.10;99.90;;;;;;4976964;28;20037;-85
2021/01/17 12:00:56;;;;;;;60.38;35.10;;;-0.10;99.90;;;;;;4976870;28;20081;-84
2021/01/17 12:03:40;;;;;;;50.60;27.70;;;-0.10;99.90;;;;;;4973825;28;20042;-85
2021/01/17 12:06:18;;;;;;;73.40;40.17;;;-0.10;99.90;;;;;;4976224;28;20433;-85
2021/01/17 12:09:02;;;;;;;73.18;41.72;;;-0.10;99.90;;;;;;4974456;28;20029;-84
2021/01/17 12:11:31;;;;;;;48.60;28.90;;;-0.10;99.90;;;;;;4976458;28;20129;-84
2021/01/17 12:13:58;;;;;;;42.15;26.27;;;-0.10;99.90;;;;;;4989663;28;20094;-85
2021/01/17 12:16:32;;;;;;;52.00;29.77;;;-0.20;99.90;;;;;;4974250;28;20093;-84
2021/01/17 12:19:00;;;;;;;44.80;27.08;;;-0.20;99.90;;;;;;4957068;28;20553;-85
2021/01/17 12:21:28;;;;;;;53.92;29.30;;;-0.20;99.90;;;;;;4974271;28;20027;-83
2021/01/17 12:23:58;;;;;;;66.32;36.17;;;-0.20;99.90;;;;;;4957089;28;20033;-87
2021/01/17 12:26:25;;;;;;;53.38;31.40;;;-0.20;99.90;;;;;;4956494;28;20023;-88
2021/01/17 12:28:52;;;;;;;46.53;27.67;;;-0.20;99.90;;;;;;4957007;28;20035;-85
2021/01/17 12:31:20;;;;;;;50.85;29.77;;;-0.20;99.90;;;;;;4974212;28;20038;-85
2021/01/17 12:33:47;;;;;;;53.67;30.98;;;-0.20;99.90;;;;;;4957097;28;20050;-85
2021/01/17 12:36:16;;;;;;;93.63;42.78;;;-0.20;99.90;;;;;;4957029;28;20090;-86
2021/01/17 12:38:42;;;;;;;60.25;32.47;;;-0.20;99.90;;;;;;4974550;28;20023;-87
2021/01/17 12:41:14;;;;;;;69.13;33.85;;;-0.20;99.90;;;;;;4959755;28;20023;-85